Time,TemperatureF,DewpointF,PressureIn,WindDirection,WindDirectionDegrees,WindSpeedMPH,WindSpeedGustMPH,Humidity,HourlyPrecipIn,Conditions,Clouds,dailyrainin,SolarRadiationWatts/m^2,SoftwareType,DateUTC
2013-05-16 00:40:00,54.8,49.4,29.82,NNW,348,0.0,0.0,82,0.00,,,0.00,0,Wunderground v.1.15,2013-05-16 05:40:00,
2013-05-16 00:50:00,53.7,48.3,29.82,NNW,348,0.0,0.0,82,0.00,,,0.00,0,Wunderground v.1.15,2013-05-16 05:50:00,
2013-05-16 00:55:00,53.8,48.4,29.83,NNW,348,0.0,0.0,82,0.00,,,0.00,0,Wunderground v.1.15,2013-05-16 05:55:00,
2013-05-16 01:05:00,53.5,48.8,29.82,NNW,348,0.0,0.0,84,0.00,,,0.00,0,Wunderground v.1.15,2013-05-16 06:05:00,
2013-05-16 01:10:00,54.2,49.8,29.82,NNW,348,0.0,0.0,85,0.00,,,0.00,0,Wunderground v.1.15,2013-05-16 06:10:00,
2013-05-16 01:20:00,53.7,48.7,29.82,NNW,348,0.0,0.0,83,0.00,,,0.00,0,Wunderground v.1.15,2013-05-16 06:20:00,
2013-05-16 01:30:00,54.5,49.8,29.82,NNW,348,0.0,0.0,84,0.00,,,0.00,0,Wunderground v.1.15,2013-05-16 06:30:00,
2013-05-16 01:40:00,54.2,49.5,29.82,NNW,348,0.0,0.0,84,0.00,,,0.00,0,Wunderground v.1.15,2013-05-16 06:40:00,
2013-05-16 01:50:00,54.0,49.3,29.82,NNW,348,0.0,0.0,84,0.00,,,0.00,0,Wunderground v.1.15,2013-05-16 06:50:00,
2013-05-16 02:00:00,54.1,49.4,29.83,NNW,348,0.0,0.0,84,0.00,,,0.00,0,Wunderground v.1.15,2013-05-16 07:00:00,
2013-05-16 02:05:00,54.0,49.0,29.83,NNW,348,0.0,0.0,83,0.00,,,0.00,0,Wunderground v.1.15,2013-05-16 07:05:00,
2013-05-16 02:15:00,55.0,50.3,29.83,NNW,348,0.0,0.0,84,0.00,,,0.00,0,Wunderground v.1.15,2013-05-16 07:15:00,
2013-05-16 02:25:00,55.6,50.5,29.83,NNW,348,0.0,0.0,83,0.00,,,0.00,0,Wunderground v.1.15,2013-05-16 07:25:00,
2013-05-16 02:35:00,55.7,50.6,29.83,NNW,348,0.0,0.0,83,0.00,,,0.00,0,Wunderground v.1.15,2013-05-16 07:35:00,
2013-05-16 02:40:00,55.7,49.6,29.83,NNW,348,0.0,0.0,80,0.00,,,0.00,0,Wunderground v.1.15,2013-05-16 07:40:00,
2013-05-16 02:50:00,56.7,49.9,29.83,NNW,348,0.0,0.0,78,0.00,,,0.00,0,Wunderground v.1.15,2013-05-16 07:50:00,
2013-05-16 03:00:00,55.7,48.6,29.84,NNW,348,0.0,0.0,77,0.00,,,0.00,0,Wunderground v.1.15,2013-05-16 08:00:00,
2013-05-16 03:05:00,55.2,48.1,29.84,NNW,348,0.0,0.0,77,0.00,,,0.00,0,Wunderground v.1.15,2013-05-16 08:05:00,
2013-05-16 03:15:00,55.8,50.1,29.84,NNW,348,0.0,0.0,81,0.00,,,0.00,0,Wunderground v.1.15,2013-05-16 08:15:00,
2013-05-16 03:20:00,55.8,51.0,29.85,NNW,348,0.0,0.0,84,0.00,,,0.00,0,Wunderground v.1.15,2013-05-16 08:20:00,
2013-05-16 03:30:00,56.0,48.9,29.85,NNW,348,0.0,0.0,77,0.00,,,0.00,0,Wunderground v.1.15,2013-05-16 08:30:00,
2013-05-16 03:35:00,56.3,50.9,29.85,NNW,348,0.0,0.0,82,0.00,,,0.00,0,Wunderground v.1.15,2013-05-16 08:35:00,
2013-05-16 03:45:00,56.7,51.6,29.85,NNW,348,1.0,1.0,83,0.00,,,0.00,0,Wunderground v.1.15,2013-05-16 08:45:00,
2013-05-16 03:55:00,55.8,50.1,29.85,WNW,284,1.0,2.0,81,0.00,,,0.00,0,Wunderground v.1.15,2013-05-16 08:55:00,
2013-05-16 04:05:00,55.4,51.0,29.85,WNW,284,0.0,1.0,85,0.00,,,0.00,0,Wunderground v.1.15,2013-05-16 09:05:00,
2013-05-16 04:15:00,55.0,49.6,29.85,WNW,284,1.0,3.0,82,0.00,,,0.00,0,Wunderground v.1.15,2013-05-16 09:15:00,
2013-05-16 04:25:00,55.0,48.3,29.85,WNW,284,0.0,2.0,78,0.00,,,0.00,0,Wunderground v.1.15,2013-05-16 09:25:00,
2013-05-16 04:35:00,55.2,49.5,29.86,WNW,284,0.0,1.0,81,0.00,,,0.00,0,Wunderground v.1.15,2013-05-16 09:35:00,
2013-05-16 04:45:00,55.3,49.6,29.86,WNW,284,0.0,2.0,81,0.00,,,0.00,0,Wunderground v.1.15,2013-05-16 09:45:00,
2013-05-16 04:50:00,55.3,49.6,29.86,WNW,284,1.0,1.0,81,0.00,,,0.00,0,Wunderground v.1.15,2013-05-16 09:50:00,
2013-05-16 05:00:00,54.1,50.0,29.86,West,275,3.0,4.0,86,0.00,,,0.00,0,Wunderground v.1.15,2013-05-16 10:00:00,
2013-05-16 05:10:00,53.6,49.2,29.86,West,274,2.0,2.0,85,0.00,,,0.00,0,Wunderground v.1.15,2013-05-16 10:10:00,
2013-05-16 05:15:00,53.5,49.1,29.86,West,274,1.0,2.0,85,0.00,,,0.00,0,Wunderground v.1.15,2013-05-16 10:15:00,
2013-05-16 05:25:00,54.1,49.7,29.87,West,274,0.0,0.0,85,0.00,,,0.00,0,Wunderground v.1.15,2013-05-16 10:25:00,
2013-05-16 05:35:00,54.6,48.9,29.87,West,274,0.0,1.0,81,0.00,,,0.00,5,Wunderground v.1.15,2013-05-16 10:35:00,
2013-05-16 05:45:00,55.1,49.4,29.87,West,274,0.0,0.0,81,0.00,,,0.00,11,Wunderground v.1.15,2013-05-16 10:45:00,
2013-05-16 05:50:00,55.2,48.8,29.87,NW,324,0.0,0.0,79,0.00,,,0.00,12,Wunderground v.1.15,2013-05-16 10:50:00,
2013-05-16 06:00:00,56.6,49.1,29.88,NW,324,0.0,0.0,76,0.00,,,0.00,16,Wunderground v.1.15,2013-05-16 11:00:00,
2013-05-16 06:05:00,56.8,50.4,29.88,NW,324,0.0,0.0,79,0.00,,,0.00,19,Wunderground v.1.15,2013-05-16 11:05:00,
2013-05-16 06:15:00,56.2,51.1,29.88,NW,324,0.0,0.0,83,0.00,,,0.00,23,Wunderground v.1.15,2013-05-16 11:15:00,
2013-05-16 06:25:00,56.7,52.2,29.89,NW,324,0.0,0.0,85,0.00,,,0.00,26,Wunderground v.1.15,2013-05-16 11:25:00,
2013-05-16 06:35:00,58.4,49.8,29.89,NW,324,0.0,0.0,73,0.00,,,0.00,28,Wunderground v.1.15,2013-05-16 11:35:00,
2013-05-16 06:45:00,60.0,48.6,29.89,NNW,327,2.0,3.0,66,0.00,,,0.00,32,Wunderground v.1.15,2013-05-16 11:45:00,
2013-05-16 06:55:00,61.8,48.2,29.89,North,355,3.0,4.0,61,0.00,,,0.00,35,Wunderground v.1.15,2013-05-16 11:55:00,
2013-05-16 07:05:00,62.7,48.2,29.90,North,355,3.0,5.0,59,0.00,,,0.00,39,Wunderground v.1.15,2013-05-16 12:05:00,
2013-05-16 07:15:00,63.4,48.8,29.90,North,355,3.0,4.0,59,0.00,,,0.00,118,Wunderground v.1.15,2013-05-16 12:15:00,
2013-05-16 07:25:00,64.1,49.9,29.90,North,360,3.0,5.0,60,0.00,,,0.00,230,Wunderground v.1.15,2013-05-16 12:25:00,
2013-05-16 07:35:00,64.9,49.8,29.90,North,5,4.0,5.0,58,0.00,,,0.00,316,Wunderground v.1.15,2013-05-16 12:35:00,
2013-05-16 07:40:00,65.2,49.1,29.90,NNW,332,4.0,6.0,56,0.00,,,0.00,332,Wunderground v.1.15,2013-05-16 12:40:00,
2013-05-16 07:50:00,66.0,49.8,29.90,NNW,342,6.0,6.0,56,0.00,,,0.00,364,Wunderground v.1.15,2013-05-16 12:50:00,
2013-05-16 07:55:00,66.3,49.6,29.90,NNW,336,6.0,9.0,55,0.00,,,0.00,380,Wunderground v.1.15,2013-05-16 12:55:00,
2013-05-16 08:05:00,66.9,50.7,29.90,NNW,335,7.0,8.0,56,0.00,,,0.00,410,Wunderground v.1.15,2013-05-16 13:05:00,
2013-05-16 08:15:00,67.7,49.4,29.91,NNW,343,7.0,11.0,52,0.00,,,0.00,446,Wunderground v.1.15,2013-05-16 13:15:00,
2013-05-16 08:25:00,68.6,49.7,29.91,North,355,8.0,11.0,51,0.00,,,0.00,480,Wunderground v.1.15,2013-05-16 13:25:00,
2013-05-16 08:30:00,69.1,50.2,29.90,NNW,341,9.0,10.0,51,0.00,,,0.00,496,Wunderground v.1.15,2013-05-16 13:30:00,
2013-05-16 08:40:00,70.1,49.5,29.91,NNW,346,8.0,8.0,48,0.00,,,0.00,522,Wunderground v.1.15,2013-05-16 13:40:00,
2013-05-16 08:45:00,70.6,50.5,29.91,North,360,7.0,8.0,49,0.00,,,0.00,540,Wunderground v.1.15,2013-05-16 13:45:00,
2013-05-16 08:55:00,71.4,49.5,29.91,North,350,5.0,6.0,46,0.00,,,0.00,570,Wunderground v.1.15,2013-05-16 13:55:00,
2013-05-16 09:05:00,72.0,48.9,29.91,NNW,340,6.0,11.0,44,0.00,,,0.00,599,Wunderground v.1.15,2013-05-16 14:05:00,
2013-05-16 09:15:00,72.2,48.5,29.91,North,355,9.0,14.0,43,0.00,,,0.00,631,Wunderground v.1.15,2013-05-16 14:15:00,
2013-05-16 09:25:00,72.7,48.3,29.91,NNW,344,8.0,9.0,42,0.00,,,0.00,666,Wunderground v.1.15,2013-05-16 14:25:00,
2013-05-16 09:35:00,72.9,49.1,29.91,NNE,15,6.0,7.0,43,0.00,,,0.00,649,Wunderground v.1.15,2013-05-16 14:35:00,
2013-05-16 09:45:00,73.4,48.9,29.91,NNE,15,5.0,9.0,42,0.00,,,0.00,701,Wunderground v.1.15,2013-05-16 14:45:00,
2013-05-16 09:50:00,73.5,49.0,29.91,North,9,6.0,6.0,42,0.00,,,0.00,722,Wunderground v.1.15,2013-05-16 14:50:00,
2013-05-16 09:55:00,73.7,48.5,29.91,NNW,333,5.0,6.0,41,0.00,,,0.00,733,Wunderground v.1.15,2013-05-16 14:55:00,
2013-05-16 10:05:00,73.8,50.5,29.91,NW,320,5.0,6.0,44,0.00,,,0.00,756,Wunderground v.1.15,2013-05-16 15:05:00,
2013-05-16 10:15:00,74.1,47.6,29.92,NNW,337,5.0,8.0,39,0.00,,,0.00,779,Wunderground v.1.15,2013-05-16 15:15:00,
2013-05-16 10:25:00,74.5,46.5,29.91,NNW,333,6.0,8.0,37,0.00,,,0.00,800,Wunderground v.1.15,2013-05-16 15:25:00,
2013-05-16 10:35:00,74.7,46.7,29.92,North,355,6.0,7.0,37,0.00,,,0.00,821,Wunderground v.1.15,2013-05-16 15:35:00,
2013-05-16 10:45:00,75.7,47.6,29.91,NE,35,1.0,3.0,37,0.00,,,0.00,842,Wunderground v.1.15,2013-05-16 15:45:00,
2013-05-16 10:50:00,76.1,47.2,29.91,NW,306,3.0,7.0,36,0.00,,,0.00,851,Wunderground v.1.15,2013-05-16 15:50:00,
2013-05-16 11:00:00,75.5,46.7,29.91,North,5,5.0,5.0,36,0.00,,,0.00,863,Wunderground v.1.15,2013-05-16 16:00:00,
2013-05-16 11:05:00,75.8,48.4,29.91,NNW,336,3.0,5.0,38,0.00,,,0.00,870,Wunderground v.1.15,2013-05-16 16:05:00,
2013-05-16 11:15:00,76.4,46.7,29.91,NNW,336,1.0,4.0,35,0.00,,,0.00,881,Wunderground v.1.15,2013-05-16 16:15:00,
2013-05-16 11:25:00,76.7,47.7,29.91,WNW,292,4.0,4.0,36,0.00,,,0.00,895,Wunderground v.1.15,2013-05-16 16:25:00,
2013-05-16 11:30:00,76.2,47.3,29.91,West,260,5.0,6.0,36,0.00,,,0.00,900,Wunderground v.1.15,2013-05-16 16:30:00,
2013-05-16 11:40:00,76.6,45.3,29.90,WNW,298,4.0,4.0,33,0.00,,,0.00,919,Wunderground v.1.15,2013-05-16 16:40:00,
2013-05-16 11:45:00,76.9,44.8,29.90,WNW,298,2.0,4.0,32,0.00,,,0.00,925,Wunderground v.1.15,2013-05-16 16:45:00,
2013-05-16 11:55:00,76.7,44.6,29.90,West,275,2.0,7.0,32,0.00,,,0.00,937,Wunderground v.1.15,2013-05-16 16:55:00,
2013-05-16 12:05:00,77.3,42.6,29.89,WSW,252,4.0,6.0,29,0.00,,,0.00,940,Wunderground v.1.15,2013-05-16 17:05:00,
2013-05-16 12:15:00,77.7,43.8,29.89,SSW,210,1.0,3.0,30,0.00,,,0.00,951,Wunderground v.1.15,2013-05-16 17:15:00,
2013-05-16 12:25:00,77.7,44.6,29.89,WNW,284,2.0,3.0,31,0.00,,,0.00,954,Wunderground v.1.15,2013-05-16 17:25:00,
2013-05-16 12:35:00,78.0,45.7,29.89,SSW,198,2.0,3.0,32,0.00,,,0.00,889,Wunderground v.1.15,2013-05-16 17:35:00,
2013-05-16 12:40:00,77.9,44.8,29.88,SSW,202,3.0,3.0,31,0.00,,,0.00,965,Wunderground v.1.15,2013-05-16 17:40:00,
2013-05-16 12:50:00,78.1,44.1,29.88,WNW,287,3.0,8.0,30,0.00,,,0.00,974,Wunderground v.1.15,2013-05-16 17:50:00,
2013-05-16 13:00:00,78.3,42.5,29.88,NNW,340,5.0,5.0,28,0.00,,,0.00,912,Wunderground v.1.15,2013-05-16 18:00:00,
2013-05-16 13:05:00,79.6,43.6,29.88,NNW,340,3.0,5.0,28,0.00,,,0.00,998,Wunderground v.1.15,2013-05-16 18:05:00,
2013-05-16 13:15:00,79.0,42.2,29.88,NNE,25,3.0,7.0,27,0.00,,,0.00,984,Wunderground v.1.15,2013-05-16 18:15:00,
2013-05-16 13:25:00,78.9,43.9,29.88,WSW,256,2.0,3.0,29,0.00,,,0.00,962,Wunderground v.1.15,2013-05-16 18:25:00,
2013-05-16 13:30:00,79.1,43.2,29.88,SW,223,2.0,2.0,28,0.00,,,0.00,972,Wunderground v.1.15,2013-05-16 18:30:00,
2013-05-16 13:40:00,79.1,43.2,29.88,NNW,342,4.0,4.0,28,0.00,,,0.00,976,Wunderground v.1.15,2013-05-16 18:40:00,
2013-05-16 13:50:00,80.4,49.5,29.89,East,96,4.0,6.0,34,0.00,,,0.00,1004,Wunderground v.1.15,2013-05-16 18:50:00,
2013-05-16 14:00:00,79.9,49.8,29.89,East,96,3.0,3.0,35,0.00,,,0.00,1016,Wunderground v.1.15,2013-05-16 19:00:00,
2013-05-16 14:05:00,78.8,50.3,29.89,NE,56,3.0,3.0,37,0.00,,,0.00,1030,Wunderground v.1.15,2013-05-16 19:05:00,
2013-05-16 14:15:00,78.0,48.9,29.89,East,101,3.0,16.0,36,0.00,,,0.00,926,Wunderground v.1.15,2013-05-16 19:15:00,
2013-05-16 14:20:00,76.8,47.8,29.90,ESE,102,5.0,5.0,36,0.00,,,0.00,921,Wunderground v.1.15,2013-05-16 19:20:00,
2013-05-16 14:25:00,75.6,48.2,29.90,ESE,119,4.0,5.0,38,0.00,,,0.00,907,Wunderground v.1.15,2013-05-16 19:25:00,
2013-05-16 14:35:00,75.8,49.8,29.90,ESE,123,2.0,2.0,40,0.00,,,0.00,875,Wunderground v.1.15,2013-05-16 19:35:00,
2013-05-16 14:45:00,76.1,47.9,29.90,East,99,2.0,6.0,37,0.00,,,0.00,867,Wunderground v.1.15,2013-05-16 19:45:00,
2013-05-16 14:55:00,75.8,47.7,29.90,SE,124,3.0,6.0,37,0.00,,,0.00,835,Wunderground v.1.15,2013-05-16 19:55:00,
2013-05-16 15:00:00,75.5,45.9,29.90,ESE,108,3.0,3.0,35,0.00,,,0.00,840,Wunderground v.1.15,2013-05-16 20:00:00,
2013-05-16 15:10:00,75.3,47.2,29.90,NNW,346,2.0,2.0,37,0.00,,,0.00,807,Wunderground v.1.15,2013-05-16 20:10:00,
2013-05-16 15:20:00,74.7,46.0,29.90,ENE,61,3.0,3.0,36,0.00,,,0.00,775,Wunderground v.1.15,2013-05-16 20:20:00,
2013-05-16 15:30:00,74.5,47.2,29.90,NE,38,3.0,3.0,38,0.00,,,0.00,754,Wunderground v.1.15,2013-05-16 20:30:00,
2013-05-16 15:40:00,74.2,46.2,29.90,East,95,2.0,2.0,37,0.00,,,0.00,742,Wunderground v.1.15,2013-05-16 20:40:00,
2013-05-16 15:50:00,73.5,45.6,29.89,ESE,123,3.0,3.0,37,0.00,,,0.00,705,Wunderground v.1.15,2013-05-16 20:50:00,
2013-05-16 16:00:00,73.4,44.8,29.90,ESE,120,2.0,2.0,36,0.00,,,0.00,675,Wunderground v.1.15,2013-05-16 21:00:00,
2013-05-16 16:05:00,73.4,46.2,29.89,ESE,114,2.0,2.0,38,0.00,,,0.00,654,Wunderground v.1.15,2013-05-16 21:05:00,
2013-05-16 16:15:00,73.4,44.8,29.90,North,355,2.0,7.0,36,0.00,,,0.00,636,Wunderground v.1.15,2013-05-16 21:15:00,
2013-05-16 16:25:00,73.5,44.2,29.90,East,82,2.0,14.0,35,0.00,,,0.00,612,Wunderground v.1.15,2013-05-16 21:25:00,
2013-05-16 16:35:00,72.7,43.5,29.89,South,187,3.0,3.0,35,0.00,,,0.00,545,Wunderground v.1.15,2013-05-16 21:35:00,
2013-05-16 16:45:00,72.1,42.9,29.90,ENE,64,3.0,3.0,35,0.00,,,0.00,492,Wunderground v.1.15,2013-05-16 21:45:00,
2013-05-16 16:50:00,71.9,43.5,29.90,ESE,121,3.0,3.0,36,0.00,,,0.00,323,Wunderground v.1.15,2013-05-16 21:50:00,
2013-05-16 17:00:00,71.1,42.8,29.90,SE,127,1.0,8.0,36,0.00,,,0.00,490,Wunderground v.1.15,2013-05-16 22:00:00,
2013-05-16 17:05:00,71.5,43.8,29.90,ENE,75,1.0,8.0,37,0.00,,,0.00,527,Wunderground v.1.15,2013-05-16 22:05:00,
2013-05-16 17:15:00,71.9,42.8,29.90,ESE,109,3.0,4.0,35,0.00,,,0.00,480,Wunderground v.1.15,2013-05-16 22:15:00,
2013-05-16 17:25:00,71.0,42.7,29.91,East,85,3.0,5.0,36,0.00,,,0.00,438,Wunderground v.1.15,2013-05-16 22:25:00,
2013-05-16 17:35:00,70.6,41.6,29.91,ESE,103,3.0,3.0,35,0.00,,,0.00,403,Wunderground v.1.15,2013-05-16 22:35:00,
2013-05-16 17:45:00,70.1,43.3,29.91,South,190,3.0,3.0,38,0.00,,,0.00,346,Wunderground v.1.15,2013-05-16 22:45:00,
2013-05-16 17:55:00,69.6,42.2,29.91,East,101,2.0,3.0,37,0.00,,,0.00,339,Wunderground v.1.15,2013-05-16 22:55:00,
2013-05-16 18:05:00,68.9,43.6,29.91,ENE,76,2.0,3.0,40,0.00,,,0.00,311,Wunderground v.1.15,2013-05-16 23:05:00,
2013-05-16 18:10:00,68.7,42.1,29.91,ESE,108,2.0,2.0,38,0.00,,,0.00,221,Wunderground v.1.15,2013-05-16 23:10:00,
2013-05-16 18:20:00,67.8,41.9,29.92,NNE,29,1.0,1.0,39,0.00,,,0.00,185,Wunderground v.1.15,2013-05-16 23:20:00,
2013-05-16 18:25:00,67.6,42.4,29.91,SW,225,1.0,1.0,40,0.00,,,0.00,220,Wunderground v.1.15,2013-05-16 23:25:00,
2013-05-16 18:35:00,67.2,41.4,29.92,SSE,148,2.0,2.0,39,0.00,,,0.00,229,Wunderground v.1.15,2013-05-16 23:35:00,
2013-05-16 18:45:00,66.8,41.0,29.92,NNE,24,1.0,1.0,39,0.00,,,0.00,192,Wunderground v.1.15,2013-05-16 23:45:00,
2013-05-16 18:55:00,66.9,39.1,29.93,NNE,30,1.0,1.0,36,0.00,,,0.00,193,Wunderground v.1.15,2013-05-16 23:55:00,
2013-05-16 19:00:00,66.6,38.1,29.92,NE,36,1.0,1.0,35,0.00,,,0.00,158,Wunderground v.1.15,2013-05-17 00:00:00,
2013-05-16 19:05:00,66.1,38.4,29.93,NE,53,1.0,1.0,36,0.00,,,0.00,98,Wunderground v.1.15,2013-05-17 00:05:00,
2013-05-16 19:15:00,65.6,37.2,29.93,North,355,1.0,1.0,35,0.00,,,0.00,93,Wunderground v.1.15,2013-05-17 00:15:00,
2013-05-16 19:25:00,64.7,37.1,29.93,ESE,123,1.0,1.0,36,0.00,,,0.00,49,Wunderground v.1.15,2013-05-17 00:25:00,
2013-05-16 19:35:00,64.2,36.7,29.93,NE,55,1.0,2.0,36,0.00,,,0.00,21,Wunderground v.1.15,2013-05-17 00:35:00,
2013-05-16 19:45:00,63.4,38.0,29.93,ENE,59,1.0,3.0,39,0.00,,,0.00,12,Wunderground v.1.15,2013-05-17 00:45:00,
2013-05-16 19:55:00,63.0,37.6,29.93,West,264,1.0,1.0,39,0.00,,,0.00,5,Wunderground v.1.15,2013-05-17 00:55:00,
2013-05-16 20:05:00,62.5,38.5,29.93,SE,125,1.0,4.0,41,0.00,,,0.00,0,Wunderground v.1.15,2013-05-17 01:05:00,
2013-05-16 20:15:00,-999.9,-99.9,29.93,North,32767,-999.0,0.0,255,-99.99,,,0.00,,Wunderground v.1.15,2013-05-17 01:15:00,
2013-05-16 20:20:00,-999.9,-99.9,29.93,North,32767,-999.0,0.0,255,-99.99,,,0.00,,Wunderground v.1.15,2013-05-17 01:20:00,
2013-05-16 20:30:00,-999.9,-99.9,29.93,North,32767,-999.0,0.0,255,-99.99,,,0.00,,Wunderground v.1.15,2013-05-17 01:30:00,
2013-05-16 20:40:00,-999.9,-99.9,29.93,North,32767,-999.0,0.0,255,-99.99,,,0.00,,Wunderground v.1.15,2013-05-17 01:40:00,
2013-05-16 20:45:00,-999.9,-99.9,29.93,North,32767,-999.0,0.0,255,-99.99,,,0.00,,Wunderground v.1.15,2013-05-17 01:45:00,
2013-05-16 20:55:00,-999.9,-99.9,29.93,North,32767,-999.0,0.0,255,-99.99,,,0.00,,Wunderground v.1.15,2013-05-17 01:55:00,
2013-05-16 21:05:00,-999.9,-99.9,29.93,North,32767,-999.0,6.0,255,-99.99,,,0.00,,Wunderground v.1.15,2013-05-17 02:05:00,
2013-05-16 21:15:00,-999.9,-99.9,29.96,North,32767,-999.0,6.0,255,-99.99,,,0.00,,Wunderground v.1.15,2013-05-17 02:15:00,
2013-05-16 21:25:00,-999.9,-99.9,29.97,North,32767,-999.0,0.0,255,-99.99,,,0.00,,Wunderground v.1.15,2013-05-17 02:25:00,
2013-05-16 21:35:00,-999.9,-99.9,29.97,North,32767,-999.0,0.0,255,-99.99,,,0.00,,Wunderground v.1.15,2013-05-17 02:35:00,
2013-05-16 21:45:00,-999.9,-99.9,29.97,North,32767,-999.0,0.0,255,-99.99,,,0.00,,Wunderground v.1.15,2013-05-17 02:45:00,
2013-05-16 21:50:00,-999.9,-99.9,29.97,North,32767,-999.0,0.0,255,-99.99,,,0.00,,Wunderground v.1.15,2013-05-17 02:50:00,
2013-05-16 21:55:00,-999.9,-99.9,29.97,North,32767,-999.0,0.0,255,-99.99,,,0.00,,Wunderground v.1.15,2013-05-17 02:55:00,
2013-05-16 22:05:00,-999.9,-99.9,29.97,North,32767,-999.0,0.0,255,-99.99,,,0.00,,Wunderground v.1.15,2013-05-17 03:05:00,
2013-05-16 22:15:00,-999.9,-99.9,29.97,North,32767,-999.0,0.0,255,-99.99,,,0.00,,Wunderground v.1.15,2013-05-17 03:15:00,
2013-05-16 22:25:00,-999.9,-99.9,29.97,North,32767,-999.0,0.0,255,-99.99,,,0.00,,Wunderground v.1.15,2013-05-17 03:25:00,
2013-05-16 22:35:00,-999.9,-99.9,29.97,North,32767,-999.0,0.0,255,-99.99,,,0.00,,Wunderground v.1.15,2013-05-17 03:35:00,
2013-05-16 22:45:00,-999.9,-99.9,29.97,North,32767,-999.0,0.0,255,-99.99,,,0.00,,Wunderground v.1.15,2013-05-17 03:45:00,
2013-05-16 22:55:00,-999.9,-99.9,29.97,North,32767,-999.0,0.0,255,-99.99,,,0.00,,Wunderground v.1.15,2013-05-17 03:55:00,
2013-05-16 23:05:00,-999.9,-99.9,29.97,North,32767,-999.0,0.0,255,-99.99,,,0.00,,Wunderground v.1.15,2013-05-17 04:05:00,
2013-05-16 23:10:00,-999.9,-99.9,29.97,North,32767,-999.0,0.0,255,-99.99,,,0.00,,Wunderground v.1.15,2013-05-17 04:10:00,
2013-05-16 23:15:00,-999.9,-99.9,29.97,North,32767,-999.0,0.0,255,-99.99,,,0.00,,Wunderground v.1.15,2013-05-17 04:15:00,
2013-05-16 23:20:00,-999.9,-99.9,29.97,North,32767,-999.0,0.0,255,-99.99,,,0.00,,Wunderground v.1.15,2013-05-17 04:20:00,
2013-05-16 23:25:00,-999.9,-99.9,29.97,North,32767,-999.0,0.0,255,-99.99,,,0.00,,Wunderground v.1.15,2013-05-17 04:25:00,
2013-05-16 23:35:00,-999.9,-99.9,29.97,North,32767,-999.0,0.0,255,-99.99,,,0.00,,Wunderground v.1.15,2013-05-17 04:35:00,
2013-05-16 23:45:00,-999.9,-99.9,29.97,North,32767,-999.0,0.0,255,-99.99,,,0.00,,Wunderground v.1.15,2013-05-17 04:45:00,
2013-05-16 23:55:00,-999.9,-99.9,29.97,North,32767,-999.0,0.0,255,-99.99,,,0.00,,Wunderground v.1.15,2013-05-17 04:55:00,